sensor_id;sensor_type;location;lat;lon;timestamp;temperature;humidity
1992;DHT22;997;48.448;8.924;2023-06-24T05:48:35;17.50;99.90
1992;DHT22;997;48.448;8.924;2023-06-24T05:51:01;17.60;99.90
1992;DHT22;997;48.448;8.924;2023-06-24T05:53:27;17.60;99.90
1992;DHT22;997;48.448;8.924;2023-06-24T05:56:00;17.70;99.90
1992;DHT22;997;48.448;8.924;2023-06-24T05:58:35;17.80;99.90
1992;DHT22;997;48.448;8.924;2023-06-24T06:01:00;18.00;99.90
1992;DHT22;997;48.448;8.924;2023-06-24T06:03:26;18.20;99.90
1992;DHT22;997;48.448;8.924;2023-06-24T06:05:52;18.30;99.90
1992;DHT22;997;48.448;8.924;2023-06-24T06:08:18;18.40;99.90
1992;DHT22;997;48.448;8.924;2023-06-24T06:10:43;18.50;99.90
1992;DHT22;997;48.448;8.924;2023-06-24T06:13:09;18.60;99.90
1992;DHT22;997;48.448;8.924;2023-06-24T06:15:34;18.60;99.90
1992;DHT22;997;48.448;8.924;2023-06-24T06:18:00;18.60;99.90
1992;DHT22;997;48.448;8.924;2023-06-24T06:20:26;18.60;99.90
1992;DHT22;997;48.448;8.924;2023-06-24T06:22:51;18.50;99.90
1992;DHT22;997;48.448;8.924;2023-06-24T06:25:17;18.60;99.90
1992;DHT22;997;48.448;8.924;2023-06-24T06:27:43;18.60;99.90
1992;DHT22;997;48.448;8.924;2023-06-24T06:30:09;18.40;99.90
1992;DHT22;997;48.448;8.924;2023-06-24T06:32:34;18.50;99.90
1992;DHT22;997;48.448;8.924;2023-06-24T06:35:00;18.80;99.90
1992;DHT22;997;48.448;8.924;2023-06-24T06:37:26;18.90;99.90
1992;DHT22;997;48.448;8.924;2023-06-24T06:39:51;19.20;99.90
1992;DHT22;997;48.448;8.924;2023-06-24T06:42:17;19.10;99.90
1992;DHT22;997;48.448;8.924;2023-06-24T06:44:43;19.40;99.90
1992;DHT22;997;48.448;8.924;2023-06-24T06:47:10;19.40;99.90
1992;DHT22;997;48.448;8.924;2023-06-24T06:49:36;19.40;99.90
1992;DHT22;997;48.448;8.924;2023-06-24T06:52:01;19.40;99.90
1992;DHT22;997;48.448;8.924;2023-06-24T06:54:27;19.50;99.90
1992;DHT22;997;48.448;8.924;2023-06-24T06:56:53;19.60;99.90
1992;DHT22;997;48.448;8.924;2023-06-24T06:59:19;19.60;99.90
1992;DHT22;997;48.448;8.924;2023-06-24T07:01:44;19.70;99.90
1992;DHT22;997;48.448;8.924;2023-06-24T07:04:10;19.90;99.90
1992;DHT22;997;48.448;8.924;2023-06-24T07:06:36;19.80;99.90
1992;DHT22;997;48.448;8.924;2023-06-24T07:09:01;20.00;99.90
1992;DHT22;997;48.448;8.924;2023-06-24T07:11:27;20.10;99.90
1992;DHT22;997;48.448;8.924;2023-06-24T07:13:53;20.20;99.90
1992;DHT22;997;48.448;8.924;2023-06-24T07:16:19;20.30;99.90
1992;DHT22;997;48.448;8.924;2023-06-24T07:18:45;20.40;99.90
1992;DHT22;997;48.448;8.924;2023-06-24T07:21:11;20.40;99.90
1992;DHT22;997;48.448;8.924;2023-06-24T07:23:36;20.50;99.90
1992;DHT22;997;48.448;8.924;2023-06-24T07:26:02;20.60;99.90
1992;DHT22;997;48.448;8.924;2023-06-24T07:28:28;20.50;99.90
1992;DHT22;997;48.448;8.924;2023-06-24T07:30:53;20.70;99.90
1992;DHT22;997;48.448;8.924;2023-06-24T07:33:19;20.90;99.90
1992;DHT22;997;48.448;8.924;2023-06-24T07:35:45;21.10;99.90
1992;DHT22;997;48.448;8.924;2023-06-24T07:38:10;21.30;99.90
1992;DHT22;997;48.448;8.924;2023-06-24T07:40:36;21.50;99.90
1992;DHT22;997;48.448;8.924;2023-06-24T07:43:02;21.40;99.90
1992;DHT22;997;48.448;8.924;2023-06-24T07:45:27;21.30;99.90
1992;DHT22;997;48.448;8.924;2023-06-24T07:47:53;21.40;99.90
1992;DHT22;997;48.448;8.924;2023-06-24T07:50:19;21.60;99.90
1992;DHT22;997;48.448;8.924;2023-06-24T07:52:45;21.90;99.90
1992;DHT22;997;48.448;8.924;2023-06-24T07:55:11;22.00;99.90
1992;DHT22;997;48.448;8.924;2023-06-24T07:57:36;22.20;99.90
1992;DHT22;997;48.448;8.924;2023-06-24T08:00:03;22.50;99.90
1992;DHT22;997;48.448;8.924;2023-06-24T08:02:31;22.60;99.90
1992;DHT22;997;48.448;8.924;2023-06-24T08:04:57;22.60;99.90
1992;DHT22;997;48.448;8.924;2023-06-24T08:07:23;22.80;99.90
1992;DHT22;997;48.448;8.924;2023-06-24T08:09:48;22.90;99.90
1992;DHT22;997;48.448;8.924;2023-06-24T08:12:14;22.90;99.90
1992;DHT22;997;48.448;8.924;2023-06-24T08:14:39;23.20;99.90
1992;DHT22;997;48.448;8.924;2023-06-24T08:17:05;23.40;99.90
1992;DHT22;997;48.448;8.924;2023-06-24T08:19:31;23.50;99.90
1992;DHT22;997;48.448;8.924;2023-06-24T08:21:57;23.40;99.90
1992;DHT22;997;48.448;8.924;2023-06-24T08:24:23;23.30;99.90
1992;DHT22;997;48.448;8.924;2023-06-24T08:26:49;23.30;99.90
1992;DHT22;997;48.448;8.924;2023-06-24T08:29:15;23.20;99.90
1992;DHT22;997;48.448;8.924;2023-06-24T08:31:43;23.00;99.90
1992;DHT22;997;48.448;8.924;2023-06-24T08:34:09;23.00;99.90
1992;DHT22;997;48.448;8.924;2023-06-24T08:36:38;23.00;99.90
1992;DHT22;997;48.448;8.924;2023-06-24T08:39:04;23.10;99.90
1992;DHT22;997;48.448;8.924;2023-06-24T08:41:30;23.30;99.90
1992;DHT22;997;48.448;8.924;2023-06-24T08:43:56;23.40;99.90
1992;DHT22;997;48.448;8.924;2023-06-24T08:46:25;23.50;99.90
1992;DHT22;997;48.448;8.924;2023-06-24T08:48:58;23.60;99.90
1992;DHT22;997;48.448;8.924;2023-06-24T08:51:27;23.70;99.90
1992;DHT22;997;48.448;8.924;2023-06-24T08:53:55;23.80;99.90
1992;DHT22;997;48.448;8.924;2023-06-24T08:56:22;23.90;99.90
1992;DHT22;997;48.448;8.924;2023-06-24T08:58:49;24.00;99.90
1992;DHT22;997;48.448;8.924;2023-06-24T09:01:15;24.20;99.90
1992;DHT22;997;48.448;8.924;2023-06-24T09:03:43;24.40;99.90
1992;DHT22;997;48.448;8.924;2023-06-24T09:06:09;24.50;99.90
1992;DHT22;997;48.448;8.924;2023-06-24T09:08:35;24.30;99.90
1992;DHT22;997;48.448;8.924;2023-06-24T09:11:05;24.10;99.90
1992;DHT22;997;48.448;8.924;2023-06-24T09:13:46;24.10;99.90
1992;DHT22;997;48.448;8.924;2023-06-24T09:16:18;24.30;99.90
1992;DHT22;997;48.448;8.924;2023-06-24T09:18:48;24.40;99.90
1992;DHT22;997;48.448;8.924;2023-06-24T09:23:59;24.70;99.90
1992;DHT22;997;48.448;8.924;2023-06-24T09:26:43;24.90;99.90
1992;DHT22;997;48.448;8.924;2023-06-24T09:32:54;24.90;99.90
1992;DHT22;997;48.448;8.924;2023-06-24T09:35:46;25.00;99.90
1992;DHT22;997;48.448;8.924;2023-06-24T09:38:15;24.80;99.90
1992;DHT22;997;48.448;8.924;2023-06-24T09:41:29;24.90;99.90
1992;DHT22;997;48.448;8.924;2023-06-24T09:44:11;25.10;99.90
1992;DHT22;997;48.448;8.924;2023-06-24T09:46:44;25.00;99.90
1992;DHT22;997;48.448;8.924;2023-06-24T09:49:19;24.90;99.90
1992;DHT22;997;48.448;8.924;2023-06-24T09:55:49;24.70;99.90
1992;DHT22;997;48.448;8.924;2023-06-24T09:58:25;24.50;99.90
1992;DHT22;997;48.448;8.924;2023-06-24T10:01:17;24.50;99.90
1992;DHT22;997;48.448;8.924;2023-06-24T10:03:43;24.50;99.90
1992;DHT22;997;48.448;8.924;2023-06-24T10:06:09;24.30;99.90
1992;DHT22;997;48.448;8.924;2023-06-24T10:08:42;24.20;99.90
1992;DHT22;997;48.448;8.924;2023-06-24T10:11:11;24.40;99.90
1992;DHT22;997;48.448;8.924;2023-06-24T10:13:37;24.60;99.90
1992;DHT22;997;48.448;8.924;2023-06-24T10:16:03;24.90;99.90
1992;DHT22;997;48.448;8.924;2023-06-24T10:18:37;25.20;99.90
1992;DHT22;997;48.448;8.924;2023-06-24T10:21:08;25.50;99.90
1992;DHT22;997;48.448;8.924;2023-06-24T10:26:28;26.00;99.90
1992;DHT22;997;48.448;8.924;2023-06-24T10:40:03;25.90;99.30
1992;DHT22;997;48.448;8.924;2023-06-24T10:42:42;26.10;96.30
1992;DHT22;997;48.448;8.924;2023-06-24T10:47:40;26.00;96.70
1992;DHT22;997;48.448;8.924;2023-06-24T10:50:07;25.80;94.60
1992;DHT22;997;48.448;8.924;2023-06-24T10:52:47;25.90;96.80
1992;DHT22;997;48.448;8.924;2023-06-24T10:55:17;26.00;95.40
1992;DHT22;997;48.448;8.924;2023-06-24T10:57:44;26.20;95.50
1992;DHT22;997;48.448;8.924;2023-06-24T11:00:11;26.20;92.80
1992;DHT22;997;48.448;8.924;2023-06-24T11:02:37;26.00;93.40
1992;DHT22;997;48.448;8.924;2023-06-24T11:05:03;26.00;93.10
1992;DHT22;997;48.448;8.924;2023-06-24T11:07:31;25.90;92.90
1992;DHT22;997;48.448;8.924;2023-06-24T11:10:06;26.00;94.50
1992;DHT22;997;48.448;8.924;2023-06-24T11:12:33;26.30;92.90
1992;DHT22;997;48.448;8.924;2023-06-24T11:15:04;26.60;92.60
1992;DHT22;997;48.448;8.924;2023-06-24T11:17:30;26.60;92.80
1992;DHT22;997;48.448;8.924;2023-06-24T11:19:57;26.70;90.20
1992;DHT22;997;48.448;8.924;2023-06-24T11:23:02;26.70;92.30
1992;DHT22;997;48.448;8.924;2023-06-24T11:25:41;26.80;90.60
1992;DHT22;997;48.448;8.924;2023-06-24T11:28:18;26.60;89.00
1992;DHT22;997;48.448;8.924;2023-06-24T11:31:11;26.70;91.20
1992;DHT22;997;48.448;8.924;2023-06-24T11:33:40;27.10;90.90
1992;DHT22;997;48.448;8.924;2023-06-24T11:36:10;27.00;84.80
1992;DHT22;997;48.448;8.924;2023-06-24T11:38:36;27.10;86.90
1992;DHT22;997;48.448;8.924;2023-06-24T11:41:02;27.00;86.70
1992;DHT22;997;48.448;8.924;2023-06-24T11:43:27;27.00;82.70
1992;DHT22;997;48.448;8.924;2023-06-24T11:45:54;27.10;85.20
1992;DHT22;997;48.448;8.924;2023-06-24T11:48:20;27.20;85.00
1992;DHT22;997;48.448;8.924;2023-06-24T11:50:53;27.40;80.80
1992;DHT22;997;48.448;8.924;2023-06-24T11:53:29;27.40;77.10
1992;DHT22;997;48.448;8.924;2023-06-24T11:55:56;27.70;79.70
1992;DHT22;997;48.448;8.924;2023-06-24T11:58:22;27.70;74.90
1992;DHT22;997;48.448;8.924;2023-06-24T12:00:48;27.70;76.60
1992;DHT22;997;48.448;8.924;2023-06-24T12:03:15;27.90;79.10
1992;DHT22;997;48.448;8.924;2023-06-24T12:05:41;27.90;76.40
1992;DHT22;997;48.448;8.924;2023-06-24T12:08:13;27.90;77.70
1992;DHT22;997;48.448;8.924;2023-06-24T12:10:43;28.00;74.50
1992;DHT22;997;48.448;8.924;2023-06-24T12:13:09;28.10;77.00
1992;DHT22;997;48.448;8.924;2023-06-24T12:15:35;28.30;78.10
1992;DHT22;997;48.448;8.924;2023-06-24T12:18:01;28.40;77.30
1992;DHT22;997;48.448;8.924;2023-06-24T12:20:31;28.60;77.50
1992;DHT22;997;48.448;8.924;2023-06-24T12:22:57;28.70;72.50
1992;DHT22;997;48.448;8.924;2023-06-24T12:25:23;28.80;73.50
1992;DHT22;997;48.448;8.924;2023-06-24T12:27:49;28.90;74.70
1992;DHT22;997;48.448;8.924;2023-06-24T12:30:15;28.80;66.90
1992;DHT22;997;48.448;8.924;2023-06-24T12:32:42;28.70;70.60
1992;DHT22;997;48.448;8.924;2023-06-24T12:35:08;28.70;69.50
1992;DHT22;997;48.448;8.924;2023-06-24T12:37:36;28.60;70.10
1992;DHT22;997;48.448;8.924;2023-06-24T12:40:02;28.40;69.90
1992;DHT22;997;48.448;8.924;2023-06-24T12:42:28;28.10;69.20
1992;DHT22;997;48.448;8.924;2023-06-24T12:44:54;28.20;72.30
1992;DHT22;997;48.448;8.924;2023-06-24T12:47:20;28.40;73.00
1992;DHT22;997;48.448;8.924;2023-06-24T12:49:46;28.60;73.50
1992;DHT22;997;48.448;8.924;2023-06-24T12:52:13;28.80;71.30
1992;DHT22;997;48.448;8.924;2023-06-24T12:54:38;28.80;67.40
1992;DHT22;997;48.448;8.924;2023-06-24T12:57:04;29.00;68.90
1992;DHT22;997;48.448;8.924;2023-06-24T12:59:30;28.90;67.90
1992;DHT22;997;48.448;8.924;2023-06-24T13:01:56;29.10;65.30
1992;DHT22;997;48.448;8.924;2023-06-24T13:04:22;28.90;64.10
1992;DHT22;997;48.448;8.924;2023-06-24T13:06:51;29.00;66.60
1992;DHT22;997;48.448;8.924;2023-06-24T13:09:17;29.10;64.70
1992;DHT22;997;48.448;8.924;2023-06-24T13:11:42;29.10;66.00
1992;DHT22;997;48.448;8.924;2023-06-24T13:14:08;29.10;64.70
1992;DHT22;997;48.448;8.924;2023-06-24T13:16:36;29.10;62.60
1992;DHT22;997;48.448;8.924;2023-06-24T13:19:02;28.90;62.50
1992;DHT22;997;48.448;8.924;2023-06-24T13:21:27;28.60;62.00
1992;DHT22;997;48.448;8.924;2023-06-24T13:23:53;28.70;61.80
1992;DHT22;997;48.448;8.924;2023-06-24T13:26:19;28.80;65.20
1992;DHT22;997;48.448;8.924;2023-06-24T13:28:44;28.80;63.10
1992;DHT22;997;48.448;8.924;2023-06-24T13:31:10;28.90;64.70
1992;DHT22;997;48.448;8.924;2023-06-24T13:33:36;29.00;62.70
1992;DHT22;997;48.448;8.924;2023-06-24T13:36:02;28.90;61.90
1992;DHT22;997;48.448;8.924;2023-06-24T13:38:28;29.10;61.50
1992;DHT22;997;48.448;8.924;2023-06-24T13:40:53;28.80;61.30
1992;DHT22;997;48.448;8.924;2023-06-24T13:43:19;29.00;63.50
1992;DHT22;997;48.448;8.924;2023-06-24T13:45:45;29.20;61.00
1992;DHT22;997;48.448;8.924;2023-06-24T13:48:10;29.20;59.10
1992;DHT22;997;48.448;8.924;2023-06-24T13:50:36;29.10;59.50
1992;DHT22;997;48.448;8.924;2023-06-24T13:53:02;29.20;58.30
1992;DHT22;997;48.448;8.924;2023-06-24T13:55:27;29.50;61.80
1992;DHT22;997;48.448;8.924;2023-06-24T13:57:53;29.80;61.20
1992;DHT22;997;48.448;8.924;2023-06-24T14:00:19;30.00;58.60
1992;DHT22;997;48.448;8.924;2023-06-24T14:02:45;30.10;59.20
1992;DHT22;997;48.448;8.924;2023-06-24T14:05:11;30.20;57.90
1992;DHT22;997;48.448;8.924;2023-06-24T14:07:37;30.20;57.20
1992;DHT22;997;48.448;8.924;2023-06-24T14:10:02;30.60;58.60
1992;DHT22;997;48.448;8.924;2023-06-24T14:12:28;30.70;56.00
1992;DHT22;997;48.448;8.924;2023-06-24T14:14:54;30.80;56.20
1992;DHT22;997;48.448;8.924;2023-06-24T14:17:19;31.10;57.10
1992;DHT22;997;48.448;8.924;2023-06-24T14:19:46;31.30;53.50
1992;DHT22;997;48.448;8.924;2023-06-24T14:22:12;31.40;53.40
1992;DHT22;997;48.448;8.924;2023-06-24T14:24:51;31.60;54.30
1992;DHT22;997;48.448;8.924;2023-06-24T14:27:21;31.90;54.20
1992;DHT22;997;48.448;8.924;2023-06-24T14:29:58;32.20;53.60
1992;DHT22;997;48.448;8.924;2023-06-24T14:33:29;32.20;54.40
1992;DHT22;997;48.448;8.924;2023-06-24T14:36:26;32.30;55.10
1992;DHT22;997;48.448;8.924;2023-06-24T14:39:16;32.40;52.00
1992;DHT22;997;48.448;8.924;2023-06-24T14:42:23;32.50;54.00
1992;DHT22;997;48.448;8.924;2023-06-24T14:44:57;32.60;53.50
1992;DHT22;997;48.448;8.924;2023-06-24T14:47:54;33.00;52.90
1992;DHT22;997;48.448;8.924;2023-06-24T14:50:41;33.20;51.80
1992;DHT22;997;48.448;8.924;2023-06-24T14:56:08;33.90;53.70
1992;DHT22;997;48.448;8.924;2023-06-24T14:58:37;33.80;51.30
1992;DHT22;997;48.448;8.924;2023-06-24T15:01:12;33.80;51.90
1992;DHT22;997;48.448;8.924;2023-06-24T15:03:55;33.90;51.80
1992;DHT22;997;48.448;8.924;2023-06-24T15:12:28;35.20;49.30
1992;DHT22;997;48.448;8.924;2023-06-24T15:18:06;35.00;49.30
1992;DHT22;997;48.448;8.924;2023-06-24T15:20:33;34.90;48.50
1992;DHT22;997;48.448;8.924;2023-06-24T15:23:34;35.00;48.40
1992;DHT22;997;48.448;8.924;2023-06-24T15:26:26;35.20;47.50
1992;DHT22;997;48.448;8.924;2023-06-24T15:28:55;35.20;47.80
1992;DHT22;997;48.448;8.924;2023-06-24T15:31:29;35.40;47.10
1992;DHT22;997;48.448;8.924;2023-06-24T15:33:55;35.50;46.60
1992;DHT22;997;48.448;8.924;2023-06-24T15:36:27;35.50;45.70
1992;DHT22;997;48.448;8.924;2023-06-24T15:38:55;35.70;46.60
1992;DHT22;997;48.448;8.924;2023-06-24T15:41:47;35.70;46.20
1992;DHT22;997;48.448;8.924;2023-06-24T15:44:18;36.20;46.20
1992;DHT22;997;48.448;8.924;2023-06-24T15:46:47;36.20;44.50
1992;DHT22;997;48.448;8.924;2023-06-24T15:49:16;35.60;45.50
1992;DHT22;997;48.448;8.924;2023-06-24T15:51:45;35.20;45.70
1992;DHT22;997;48.448;8.924;2023-06-24T15:54:10;35.20;46.50
1992;DHT22;997;48.448;8.924;2023-06-24T15:56:36;35.70;47.40
1992;DHT22;997;48.448;8.924;2023-06-24T16:01:45;35.80;45.80
1992;DHT22;997;48.448;8.924;2023-06-24T16:04:10;35.60;47.30
1992;DHT22;997;48.448;8.924;2023-06-24T16:06:36;35.80;47.30
1992;DHT22;997;48.448;8.924;2023-06-24T16:09:02;36.30;47.70
1992;DHT22;997;48.448;8.924;2023-06-24T16:11:28;36.90;44.80
1992;DHT22;997;48.448;8.924;2023-06-24T16:13:53;36.80;45.90
1992;DHT22;997;48.448;8.924;2023-06-24T16:16:19;37.20;46.70
1992;DHT22;997;48.448;8.924;2023-06-24T16:18:45;37.40;45.20
1992;DHT22;997;48.448;8.924;2023-06-24T16:21:10;38.00;45.60
1992;DHT22;997;48.448;8.924;2023-06-24T16:23:36;38.30;45.20
1992;DHT22;997;48.448;8.924;2023-06-24T16:26:02;38.70;44.40
1992;DHT22;997;48.448;8.924;2023-06-24T16:28:28;38.40;43.80
1992;DHT22;997;48.448;8.924;2023-06-24T16:30:53;38.30;43.80
1992;DHT22;997;48.448;8.924;2023-06-24T16:33:19;38.20;44.30
1992;DHT22;997;48.448;8.924;2023-06-24T16:35:45;38.10;44.10
1992;DHT22;997;48.448;8.924;2023-06-24T16:38:10;38.00;44.40
1992;DHT22;997;48.448;8.924;2023-06-24T16:40:36;38.30;43.60
1992;DHT22;997;48.448;8.924;2023-06-24T16:43:02;38.50;43.90
1992;DHT22;997;48.448;8.924;2023-06-24T16:45:28;38.90;44.00
1992;DHT22;997;48.448;8.924;2023-06-24T16:47:53;39.00;43.20
1992;DHT22;997;48.448;8.924;2023-06-24T16:50:19;38.40;42.60
1992;DHT22;997;48.448;8.924;2023-06-24T16:52:45;38.30;43.00
1992;DHT22;997;48.448;8.924;2023-06-24T16:55:10;38.30;42.90
1992;DHT22;997;48.448;8.924;2023-06-24T16:57:36;38.40;42.80
1992;DHT22;997;48.448;8.924;2023-06-24T17:00:02;38.00;43.00
1992;DHT22;997;48.448;8.924;2023-06-24T17:02:27;37.90;42.90
1992;DHT22;997;48.448;8.924;2023-06-24T17:04:54;37.90;42.50
1992;DHT22;997;48.448;8.924;2023-06-24T17:07:20;38.00;42.90
1992;DHT22;997;48.448;8.924;2023-06-24T17:09:45;38.10;42.60
1992;DHT22;997;48.448;8.924;2023-06-24T17:12:11;38.20;42.30
1992;DHT22;997;48.448;8.924;2023-06-24T17:14:37;38.30;42.50
1992;DHT22;997;48.448;8.924;2023-06-24T17:17:03;38.10;42.10
1992;DHT22;997;48.448;8.924;2023-06-24T17:19:29;38.60;42.90
1992;DHT22;997;48.448;8.924;2023-06-24T17:21:55;39.00;42.70
1992;DHT22;997;48.448;8.924;2023-06-24T17:24:21;39.30;41.40
1992;DHT22;997;48.448;8.924;2023-06-24T17:26:47;38.40;41.60
1992;DHT22;997;48.448;8.924;2023-06-24T17:29:12;38.10;42.80
1992;DHT22;997;48.448;8.924;2023-06-24T17:31:40;37.90;42.30
1992;DHT22;997;48.448;8.924;2023-06-24T17:34:06;37.60;42.50
1992;DHT22;997;48.448;8.924;2023-06-24T17:36:32;37.80;42.70
1992;DHT22;997;48.448;8.924;2023-06-24T17:38:58;38.00;42.60
1992;DHT22;997;48.448;8.924;2023-06-24T17:41:23;38.10;42.80
1992;DHT22;997;48.448;8.924;2023-06-24T17:43:49;37.30;42.10
1992;DHT22;997;48.448;8.924;2023-06-24T17:46:15;37.20;42.80
1992;DHT22;997;48.448;8.924;2023-06-24T17:48:47;37.30;43.00
1992;DHT22;997;48.448;8.924;2023-06-24T17:51:15;37.10;42.90
1992;DHT22;997;48.448;8.924;2023-06-24T17:53:41;36.50;43.40
1992;DHT22;997;48.448;8.924;2023-06-24T17:56:06;35.70;43.50
1992;DHT22;997;48.448;8.924;2023-06-24T17:58:32;34.70;44.50
1992;DHT22;997;48.448;8.924;2023-06-24T18:03:26;32.90;46.30
1992;DHT22;997;48.448;8.924;2023-06-24T18:05:51;32.20;47.80
1992;DHT22;997;48.448;8.924;2023-06-24T18:08:18;31.30;48.80
1992;DHT22;997;48.448;8.924;2023-06-24T18:10:44;30.80;49.30
1992;DHT22;997;48.448;8.924;2023-06-24T18:13:10;30.30;50.50
1992;DHT22;997;48.448;8.924;2023-06-24T18:15:36;29.90;50.70
1992;DHT22;997;48.448;8.924;2023-06-24T18:18:01;29.60;52.40
1992;DHT22;997;48.448;8.924;2023-06-24T18:20:27;29.30;52.50
1992;DHT22;997;48.448;8.924;2023-06-24T18:22:53;29.00;53.10
1992;DHT22;997;48.448;8.924;2023-06-24T18:25:19;28.90;54.00
1992;DHT22;997;48.448;8.924;2023-06-24T18:27:45;28.70;53.30
1992;DHT22;997;48.448;8.924;2023-06-24T18:30:11;28.40;54.10
1992;DHT22;997;48.448;8.924;2023-06-24T18:32:36;28.20;54.50
1992;DHT22;997;48.448;8.924;2023-06-24T18:35:02;28.10;54.70
1992;DHT22;997;48.448;8.924;2023-06-24T18:37:28;28.00;55.00
1992;DHT22;997;48.448;8.924;2023-06-24T18:39:56;27.90;55.40
1992;DHT22;997;48.448;8.924;2023-06-24T18:42:22;27.80;55.70
1992;DHT22;997;48.448;8.924;2023-06-24T18:44:48;27.70;55.60
1992;DHT22;997;48.448;8.924;2023-06-24T18:47:14;27.70;55.90
1992;DHT22;997;48.448;8.924;2023-06-24T18:49:40;27.60;56.60
1992;DHT22;997;48.448;8.924;2023-06-24T18:52:06;27.50;56.70
1992;DHT22;997;48.448;8.924;2023-06-24T18:54:32;27.50;56.50
1992;DHT22;997;48.448;8.924;2023-06-24T18:56:57;27.40;57.00
1992;DHT22;997;48.448;8.924;2023-06-24T18:59:23;27.40;57.50
1992;DHT22;997;48.448;8.924;2023-06-24T19:01:48;27.30;56.60
1992;DHT22;997;48.448;8.924;2023-06-24T19:04:14;27.30;57.20
1992;DHT22;997;48.448;8.924;2023-06-24T19:06:41;27.30;57.50
1992;DHT22;997;48.448;8.924;2023-06-24T19:09:08;27.30;57.40
1992;DHT22;997;48.448;8.924;2023-06-24T19:11:34;27.30;57.20
1992;DHT22;997;48.448;8.924;2023-06-24T19:14:00;27.00;57.20
1992;DHT22;997;48.448;8.924;2023-06-24T19:16:26;27.00;58.00
1992;DHT22;997;48.448;8.924;2023-06-24T19:18:51;26.90;57.90
1992;DHT22;997;48.448;8.924;2023-06-24T19:21:17;26.90;58.30
1992;DHT22;997;48.448;8.924;2023-06-24T19:23:43;26.70;58.40
1992;DHT22;997;48.448;8.924;2023-06-24T19:26:09;26.60;58.70
1992;DHT22;997;48.448;8.924;2023-06-24T19:28:34;26.60;59.10
1992;DHT22;997;48.448;8.924;2023-06-24T19:31:00;26.50;58.70
1992;DHT22;997;48.448;8.924;2023-06-24T19:33:26;26.50;59.00
1992;DHT22;997;48.448;8.924;2023-06-24T19:35:53;26.40;59.20
1992;DHT22;997;48.448;8.924;2023-06-24T19:38:19;26.40;59.10
1992;DHT22;997;48.448;8.924;2023-06-24T19:40:45;26.30;59.30
1992;DHT22;997;48.448;8.924;2023-06-24T19:43:11;26.20;59.80
1992;DHT22;997;48.448;8.924;2023-06-24T19:45:36;26.00;60.20
1992;DHT22;997;48.448;8.924;2023-06-24T19:48:02;26.00;61.60
1992;DHT22;997;48.448;8.924;2023-06-24T19:50:28;25.90;62.00
1992;DHT22;997;48.448;8.924;2023-06-24T19:52:53;25.80;61.90
1992;DHT22;997;48.448;8.924;2023-06-24T19:55:19;25.80;62.80
1992;DHT22;997;48.448;8.924;2023-06-24T19:57:45;25.90;63.00
1992;DHT22;997;48.448;8.924;2023-06-24T20:00:11;25.80;63.60
1992;DHT22;997;48.448;8.924;2023-06-24T20:02:36;25.70;64.40
1992;DHT22;997;48.448;8.924;2023-06-24T20:05:02;25.60;64.30
1992;DHT22;997;48.448;8.924;2023-06-24T20:07:28;25.60;65.40
1992;DHT22;997;48.448;8.924;2023-06-24T20:09:54;25.50;65.50
1992;DHT22;997;48.448;8.924;2023-06-24T20:12:19;25.60;65.90
1992;DHT22;997;48.448;8.924;2023-06-24T20:14:45;25.60;65.60
1992;DHT22;997;48.448;8.924;2023-06-24T20:17:12;25.50;66.50
1992;DHT22;997;48.448;8.924;2023-06-24T20:19:40;25.50;66.40
1992;DHT22;997;48.448;8.924;2023-06-24T20:22:06;25.40;66.80
1992;DHT22;997;48.448;8.924;2023-06-24T20:24:32;25.20;66.60
1992;DHT22;997;48.448;8.924;2023-06-24T20:26:57;25.10;66.90
1992;DHT22;997;48.448;8.924;2023-06-24T20:29:23;24.90;66.90
1992;DHT22;997;48.448;8.924;2023-06-24T20:31:49;24.90;67.10
1992;DHT22;997;48.448;8.924;2023-06-24T20:34:14;24.90;67.70
1992;DHT22;997;48.448;8.924;2023-06-24T20:36:40;24.90;68.30
1992;DHT22;997;48.448;8.924;2023-06-24T20:39:06;24.90;68.60
1992;DHT22;997;48.448;8.924;2023-06-24T20:41:31;24.70;68.20
1992;DHT22;997;48.448;8.924;2023-06-24T20:44:00;24.60;68.10
1992;DHT22;997;48.448;8.924;2023-06-24T20:46:27;24.40;69.30
1992;DHT22;997;48.448;8.924;2023-06-24T20:48:53;24.40;69.60
1992;DHT22;997;48.448;8.924;2023-06-24T20:51:19;24.50;69.30
1992;DHT22;997;48.448;8.924;2023-06-24T20:53:45;24.50;70.70
1992;DHT22;997;48.448;8.924;2023-06-24T20:56:11;24.40;71.50
1992;DHT22;997;48.448;8.924;2023-06-24T20:58:37;24.40;71.20
1992;DHT22;997;48.448;8.924;2023-06-24T21:01:04;24.30;71.30
1992;DHT22;997;48.448;8.924;2023-06-24T21:03:31;24.30;72.30
1992;DHT22;997;48.448;8.924;2023-06-24T21:05:57;24.20;73.60
1992;DHT22;997;48.448;8.924;2023-06-24T21:08:22;24.30;73.80
1992;DHT22;997;48.448;8.924;2023-06-24T21:10:48;24.00;70.90
1992;DHT22;997;48.448;8.924;2023-06-24T21:13:14;24.10;75.00
1992;DHT22;997;48.448;8.924;2023-06-24T21:15:39;24.00;74.20
1992;DHT22;997;48.448;8.924;2023-06-24T21:18:05;23.90;77.10
1992;DHT22;997;48.448;8.924;2023-06-24T21:20:31;23.80;75.60
1992;DHT22;997;48.448;8.924;2023-06-24T21:22:56;23.70;78.30
1992;DHT22;997;48.448;8.924;2023-06-24T21:25:22;23.70;79.10
1992;DHT22;997;48.448;8.924;2023-06-24T21:27:49;23.70;79.70
